createdAt,value
2018-10-19T00:01:24.549Z,33.80
2018-10-19T00:03:54.131Z,33.57
2018-10-19T00:06:22.971Z,33.40
2018-10-19T00:08:51.811Z,32.27
2018-10-19T00:11:20.662Z,33.27
2018-10-19T00:13:49.503Z,34.00
2018-10-19T00:16:19.085Z,33.77
2018-10-19T00:18:47.914Z,37.30
2018-10-19T00:21:16.758Z,32.20
2018-10-19T00:23:45.588Z,33.00
2018-10-19T00:26:15.185Z,32.50
2018-10-19T00:28:44.791Z,37.10
2018-10-19T00:31:14.376Z,35.30
2018-10-19T00:33:43.223Z,35.87
2018-10-19T00:36:12.042Z,32.83
2018-10-19T00:38:40.881Z,32.93
2018-10-19T00:41:10.556Z,32.13
2018-10-19T00:43:39.311Z,33.37
2018-10-19T00:46:08.148Z,34.63
2018-10-19T00:48:37.749Z,33.57
2018-10-19T00:51:06.617Z,35.80
2018-10-19T00:53:35.432Z,35.40
2018-10-19T00:56:05.026Z,37.47
2018-10-19T00:58:33.883Z,32.73
2018-10-19T01:01:02.714Z,31.70
2018-10-19T01:03:32.298Z,30.87
2018-10-19T01:06:01.126Z,35.10
2018-10-19T01:08:30.706Z,32.77
2018-10-19T01:10:59.558Z,31.10
2018-10-19T01:13:28.394Z,31.23
2018-10-19T01:15:57.237Z,30.37
2018-10-19T01:18:26.077Z,29.53
2018-10-19T01:20:55.668Z,31.77
2018-10-19T01:23:24.492Z,34.67
2018-10-19T01:25:53.329Z,30.40
2018-10-19T01:28:22.164Z,31.93
2018-10-19T01:30:51.747Z,30.23
2018-10-19T01:33:20.580Z,31.00
2018-10-19T01:35:49.418Z,31.53
2018-10-19T01:38:18.984Z,31.13
2018-10-19T01:40:47.821Z,32.47
2018-10-19T01:43:16.674Z,34.27
2018-10-19T01:45:45.508Z,36.25
2018-10-19T01:48:15.082Z,33.23
2018-10-19T01:50:43.925Z,35.33
2018-10-19T01:53:12.814Z,33.03
2018-10-19T01:55:41.593Z,32.27
2018-10-19T01:58:10.439Z,32.30
2018-10-19T02:00:39.273Z,30.93
2018-10-19T02:03:08.119Z,35.43
2018-10-19T02:05:36.937Z,35.03
2018-10-19T02:08:06.518Z,31.50
2018-10-19T02:10:35.371Z,33.43
2018-10-19T02:13:04.218Z,32.30
2018-10-19T02:15:33.074Z,31.93
2018-10-19T02:18:01.926Z,35.70
2018-10-19T02:20:30.774Z,35.10
2018-10-19T02:22:59.615Z,33.47
2018-10-19T02:25:28.458Z,32.23
2018-10-19T02:27:57.304Z,32.00
2018-10-19T02:30:26.143Z,31.10
2018-10-19T02:32:55.781Z,31.90
2018-10-19T02:35:24.613Z,31.10
2018-10-19T02:37:53.450Z,30.30
2018-10-19T02:40:22.287Z,30.03
2018-10-19T02:42:51.123Z,31.93
2018-10-19T02:45:19.969Z,30.60
2018-10-19T02:47:48.804Z,33.93
2018-10-19T02:50:17.672Z,29.90
2018-10-19T02:52:47.259Z,31.90
2018-10-19T02:55:16.084Z,34.80
2018-10-19T02:57:45.663Z,30.73
2018-10-19T03:00:15.096Z,34.50
2018-10-19T03:02:44.682Z,34.30
2018-10-19T03:05:13.645Z,34.17
2018-10-19T03:07:42.376Z,34.37
2018-10-19T03:10:11.223Z,33.20
2018-10-19T03:12:40.056Z,31.17
2018-10-19T03:15:09.737Z,31.40
2018-10-19T03:17:38.479Z,30.13
2018-10-19T03:20:07.355Z,31.23
2018-10-19T03:22:36.163Z,29.07
2018-10-19T03:25:05.009Z,29.13
2018-10-19T03:27:34.591Z,26.43
2018-10-19T03:30:03.435Z,31.95
2018-10-19T03:32:32.273Z,24.13
2018-10-19T03:35:01.152Z,24.10
2018-10-19T03:37:29.946Z,22.30
2018-10-19T03:39:58.785Z,20.33
2018-10-19T03:42:27.623Z,20.53
2018-10-19T03:44:57.246Z,19.83
2018-10-19T03:47:26.055Z,19.70
2018-10-19T03:49:55.643Z,20.87
2018-10-19T03:52:24.469Z,18.30
2018-10-19T03:54:53.337Z,21.53
2018-10-19T03:57:22.915Z,19.37
2018-10-19T03:59:51.753Z,20.33
2018-10-19T04:02:20.594Z,18.63
2018-10-19T04:04:49.444Z,20.13
2018-10-19T04:07:18.312Z,20.70
2018-10-19T04:09:47.149Z,18.67
2018-10-19T04:12:15.989Z,18.00
2018-10-19T04:14:44.834Z,18.77
2018-10-19T04:17:14.476Z,17.47
2018-10-19T04:19:43.252Z,24.57
2018-10-19T04:22:12.105Z,20.27
2018-10-19T04:24:40.933Z,62.88
2018-10-19T04:27:10.550Z,44.83
2018-10-19T04:29:40.104Z,31.20
2018-10-19T04:32:08.932Z,19.87
2018-10-19T04:34:37.779Z,21.90
2018-10-19T04:37:06.602Z,27.87
2018-10-19T04:39:35.451Z,82.00
2018-10-19T04:42:04.482Z,42.28
2018-10-19T04:44:33.138Z,96.20
2018-10-19T04:47:02.063Z,38.70
2018-10-19T04:49:30.823Z,43.23
2018-10-19T04:51:59.676Z,31.27
2018-10-19T04:54:28.522Z,32.63
2018-10-19T04:56:57.398Z,22.73
2018-10-19T04:59:26.209Z,22.23
2018-10-19T05:01:55.050Z,22.43
2018-10-19T05:04:23.898Z,20.20
2018-10-19T05:06:52.737Z,18.87
2018-10-19T05:09:21.575Z,17.57
2018-10-19T05:11:50.417Z,18.20
2018-10-19T05:14:19.288Z,17.93
2018-10-19T05:16:48.093Z,17.27
2018-10-19T05:19:16.920Z,17.17
2018-10-19T05:21:45.755Z,16.73
2018-10-19T05:24:14.665Z,18.53
2018-10-19T05:26:43.453Z,18.37
2018-10-19T05:29:12.377Z,18.97
2018-10-19T05:31:41.123Z,18.43
2018-10-19T05:34:09.965Z,20.17
2018-10-19T05:36:39.384Z,18.90
2018-10-19T05:39:08.214Z,18.73
2018-10-19T05:41:37.052Z,19.43
2018-10-19T05:44:05.920Z,20.37
2018-10-19T05:46:34.730Z,20.30
2018-10-19T05:49:03.583Z,26.92
2018-10-19T05:51:32.425Z,23.93
2018-10-19T05:54:01.285Z,23.50
2018-10-19T05:56:30.867Z,24.87
2018-10-19T05:58:59.739Z,26.05
2018-10-19T06:01:28.579Z,22.67
2018-10-19T06:03:57.419Z,21.77
2018-10-19T06:06:26.260Z,21.17
2018-10-19T06:08:55.098Z,19.43
2018-10-19T06:11:23.934Z,19.77
2018-10-19T06:13:53.590Z,19.03
2018-10-19T06:16:22.410Z,17.53
2018-10-19T06:18:52.885Z,21.90
2018-10-19T06:21:21.742Z,19.10
2018-10-19T06:23:51.328Z,20.10
2018-10-19T06:26:20.235Z,20.12
2018-10-19T06:28:49.024Z,17.53
2018-10-19T06:31:18.628Z,16.83
2018-10-19T06:33:47.498Z,18.47
2018-10-19T06:36:16.328Z,23.75
2018-10-19T06:38:45.160Z,19.70
2018-10-19T06:41:14.811Z,20.70
2018-10-19T06:43:44.658Z,18.93
2018-10-19T06:46:13.413Z,19.40
2018-10-19T06:48:42.298Z,17.97
2018-10-19T06:51:11.133Z,17.17
2018-10-19T06:53:40.077Z,19.40
2018-10-19T06:56:09.711Z,18.33
2018-10-19T06:58:38.500Z,20.40
2018-10-19T07:01:07.344Z,18.67
2018-10-19T07:03:36.188Z,19.50
2018-10-19T07:06:05.056Z,21.98
2018-10-19T07:08:34.631Z,22.90
2018-10-19T07:11:03.559Z,22.67
2018-10-19T07:13:32.331Z,20.33
2018-10-19T07:16:01.974Z,22.63
2018-10-19T07:18:30.778Z,20.43
2018-10-19T07:20:59.644Z,20.43
2018-10-19T07:23:28.495Z,21.13
2018-10-19T07:25:58.078Z,22.07
2018-10-19T07:28:26.918Z,24.37
2018-10-19T07:30:55.782Z,22.13
2018-10-19T07:33:24.637Z,23.47
2018-10-19T07:35:53.493Z,30.27
2018-10-19T07:38:22.350Z,23.87
2018-10-19T07:40:51.206Z,32.00
2018-10-19T07:43:20.046Z,31.70
2018-10-19T07:45:48.892Z,30.90
2018-10-19T07:48:17.801Z,28.73
2018-10-19T07:50:46.596Z,30.80
2018-10-19T07:53:16.199Z,31.60
2018-10-19T07:55:45.056Z,36.65
2018-10-19T07:58:13.904Z,33.17
2018-10-19T08:00:42.798Z,30.70
2018-10-19T08:03:11.622Z,36.27
2018-10-19T08:05:40.453Z,34.03
2018-10-19T08:08:10.125Z,38.63
2018-10-19T08:10:39.672Z,41.20
2018-10-19T08:13:08.512Z,44.13
2018-10-19T08:15:37.359Z,42.67
2018-10-19T08:18:06.227Z,38.67
2018-10-19T08:20:35.077Z,43.87
2018-10-19T08:23:03.931Z,44.87
2018-10-19T08:25:32.795Z,42.47
2018-10-19T08:28:02.394Z,37.73
2018-10-19T08:30:31.543Z,42.08
2018-10-19T08:33:00.282Z,43.35
2018-10-19T08:35:29.128Z,41.67
2018-10-19T08:37:57.974Z,41.77
2018-10-19T08:40:26.804Z,39.20
2018-10-19T08:42:55.651Z,41.03
2018-10-19T08:45:24.487Z,45.87
2018-10-19T08:47:53.330Z,39.47
2018-10-19T08:50:22.925Z,40.63
2018-10-19T08:52:51.785Z,40.40
2018-10-19T08:55:20.634Z,39.70
2018-10-19T08:57:49.524Z,40.77
2018-10-19T09:00:18.371Z,39.43
2018-10-19T09:02:47.161Z,39.37
2018-10-19T09:05:16.077Z,41.97
2018-10-19T09:07:44.872Z,43.67
2018-10-19T09:10:13.730Z,41.07
2018-10-19T09:12:42.694Z,36.23
2018-10-19T09:15:11.720Z,35.00
2018-10-19T09:17:40.550Z,39.00
2018-10-19T09:20:09.390Z,43.40
2018-10-19T09:22:38.237Z,35.27
2018-10-19T09:25:07.099Z,35.20
2018-10-19T09:27:36.670Z,38.43
2018-10-19T09:30:06.272Z,37.23
2018-10-19T09:32:35.123Z,34.27
2018-10-19T09:35:04.053Z,40.77
2018-10-19T09:37:32.834Z,33.20
2018-10-19T09:40:01.725Z,35.13
2018-10-19T09:42:30.525Z,34.53
2018-10-19T09:44:59.371Z,37.33
2018-10-19T09:47:28.233Z,37.83
2018-10-19T09:49:57.076Z,34.17
2018-10-19T09:52:25.924Z,39.37
2018-10-19T09:54:54.802Z,38.03
2018-10-19T09:57:24.368Z,37.70
2018-10-19T09:59:53.229Z,37.50
2018-10-19T10:02:22.079Z,37.57
2018-10-19T10:04:51.659Z,38.87
2018-10-19T10:07:21.248Z,38.07
2018-10-19T10:09:50.103Z,39.37
2018-10-19T10:12:18.940Z,35.70
2018-10-19T10:14:47.815Z,36.77
2018-10-19T10:17:16.622Z,35.17
2018-10-19T10:19:45.474Z,40.53
2018-10-19T10:22:14.389Z,38.57
2018-10-19T10:24:43.205Z,39.17
2018-10-19T10:27:12.021Z,36.47
2018-10-19T10:29:40.918Z,39.80
2018-10-19T10:32:09.768Z,38.97
2018-10-19T10:34:38.615Z,38.97
2018-10-19T10:37:07.495Z,36.67
2018-10-19T10:39:37.091Z,41.07
2018-10-19T10:42:05.942Z,39.92
2018-10-19T10:44:34.777Z,41.23
2018-10-19T10:47:03.669Z,38.53
2018-10-19T10:49:33.261Z,35.20
2018-10-19T10:52:02.110Z,40.00
2018-10-19T10:54:30.934Z,37.07
2018-10-19T10:56:59.768Z,34.83
2018-10-19T10:59:28.615Z,35.80
2018-10-19T11:01:57.474Z,37.03
2018-10-19T11:04:26.319Z,33.83
2018-10-19T11:06:55.202Z,32.93
2018-10-19T11:09:24.740Z,35.43
2018-10-19T11:11:53.605Z,37.42
2018-10-19T11:14:22.485Z,34.20
2018-10-19T11:16:51.279Z,36.53
2018-10-19T11:19:20.170Z,37.20
2018-10-19T11:21:49.002Z,35.47
2018-10-19T11:24:18.441Z,33.40
2018-10-19T11:26:47.304Z,39.67
2018-10-19T11:29:16.909Z,34.30
2018-10-19T11:31:45.755Z,34.63
2018-10-19T11:34:14.628Z,31.77
2018-10-19T11:36:44.198Z,33.33
2018-10-19T11:39:13.792Z,37.53
2018-10-19T11:41:42.645Z,38.45
2018-10-19T11:44:11.504Z,37.80
2018-10-19T11:46:40.385Z,34.83
2018-10-19T11:49:10.059Z,36.87
2018-10-19T11:51:39.575Z,36.43
2018-10-19T11:54:08.446Z,36.50
2018-10-19T11:56:37.300Z,37.35
2018-10-19T11:59:06.152Z,37.77
2018-10-19T12:01:35.005Z,33.77
2018-10-19T12:04:03.909Z,41.80
2018-10-19T12:06:32.685Z,37.43
2018-10-19T12:09:01.532Z,36.10
2018-10-19T12:11:30.368Z,32.70
2018-10-19T12:13:59.204Z,35.40
2018-10-19T12:16:28.789Z,35.60
2018-10-19T12:18:57.662Z,34.40
2018-10-19T12:21:26.520Z,37.83
2018-10-19T12:23:55.331Z,32.53
2018-10-19T12:26:24.187Z,33.13
2018-10-19T12:28:53.052Z,34.03
2018-10-19T12:31:21.936Z,33.93
2018-10-19T12:33:50.781Z,30.43
2018-10-19T12:36:19.635Z,35.72
2018-10-19T12:38:48.480Z,33.23
2018-10-19T12:41:17.427Z,35.40
2018-10-19T12:43:46.179Z,30.73
2018-10-19T12:49:09.446Z,33.20
2018-10-19T12:51:38.266Z,32.57
2018-10-19T12:54:07.871Z,34.37
2018-10-19T12:56:36.700Z,33.73
2018-10-19T12:59:05.545Z,32.63
2018-10-19T13:01:34.412Z,34.93
2018-10-19T13:04:03.264Z,35.10
2018-10-19T13:06:32.100Z,33.47
2018-10-19T13:09:00.999Z,33.10
2018-10-19T13:11:29.799Z,30.07
2018-10-19T13:13:58.644Z,30.83
2018-10-19T13:16:27.489Z,30.80
2018-10-19T13:18:56.368Z,31.37
2018-10-19T13:21:25.185Z,32.60
2018-10-19T13:23:54.086Z,32.07
2018-10-19T13:26:22.899Z,32.27
2018-10-19T13:28:52.482Z,31.13
2018-10-19T13:31:21.333Z,31.12
2018-10-19T13:33:50.179Z,30.73
2018-10-19T13:36:19.013Z,30.05
2018-10-19T13:38:47.855Z,31.17
2018-10-19T13:41:16.702Z,28.47
2018-10-19T13:43:45.551Z,28.67
2018-10-19T13:46:15.141Z,30.30
2018-10-19T13:48:43.998Z,33.60
2018-10-19T13:51:12.914Z,31.53
2018-10-19T13:53:41.708Z,30.25
2018-10-19T13:56:10.563Z,29.30
2018-10-19T13:58:40.467Z,29.70
2018-10-19T14:01:09.359Z,30.35
2018-10-19T14:03:38.200Z,29.58
2018-10-19T14:06:07.057Z,25.67
2018-10-19T14:08:35.905Z,28.17
2018-10-19T14:11:04.813Z,28.75
2018-10-19T14:13:34.170Z,30.55
2018-10-19T14:16:03.796Z,27.62
2018-10-19T14:18:32.660Z,29.37
2018-10-19T14:21:01.527Z,30.03
2018-10-19T14:23:30.346Z,29.25
2018-10-19T14:26:00.053Z,31.85
2018-10-19T14:30:08.221Z,34.30
2018-10-19T14:32:37.065Z,33.33
2018-10-19T14:35:06.694Z,28.92
2018-10-19T14:37:35.676Z,29.67
2018-10-19T14:40:04.603Z,28.83
2018-10-19T14:42:33.360Z,29.08
2018-10-19T14:45:02.276Z,34.35
2018-10-19T14:47:31.086Z,31.60
2018-10-19T14:49:59.926Z,32.10
2018-10-19T14:52:29.501Z,28.40
2018-10-19T14:54:58.370Z,31.98
2018-10-19T14:57:27.229Z,31.37
2018-10-19T14:59:56.076Z,31.62
2018-10-19T15:02:25.673Z,31.55
2018-10-19T15:04:54.565Z,29.63
2018-10-19T15:07:23.376Z,30.80
2018-10-19T15:09:53.110Z,33.70
2018-10-19T15:12:21.844Z,33.78
2018-10-19T15:14:50.654Z,34.23
2018-10-19T15:17:19.503Z,31.33
2018-10-19T15:19:48.380Z,31.92
2018-10-19T15:22:17.215Z,32.90
2018-10-19T15:24:46.058Z,32.83
2018-10-19T15:27:15.003Z,30.65
2018-10-19T15:29:43.793Z,28.27
2018-10-19T15:32:12.636Z,31.37
2018-10-19T15:34:41.516Z,30.23
2018-10-19T15:37:10.382Z,30.50
2018-10-19T15:39:39.958Z,32.13
2018-10-19T15:42:08.896Z,29.40
2018-10-19T15:44:37.657Z,30.33
2018-10-19T15:47:07.240Z,31.30
2018-10-19T15:49:36.088Z,30.43
2018-10-19T15:52:04.922Z,30.70
2018-10-19T15:54:33.785Z,31.03
2018-10-19T15:57:02.679Z,34.95
2018-10-19T15:59:31.490Z,33.08
2018-10-19T16:02:00.353Z,33.57
2018-10-19T16:04:29.194Z,35.00
2018-10-19T16:06:58.051Z,33.67
2018-10-19T16:09:26.888Z,37.57
2018-10-19T16:11:55.780Z,36.37
2018-10-19T16:14:25.329Z,32.20
2018-10-19T16:16:54.273Z,32.80
2018-10-19T16:19:23.122Z,30.93
2018-10-19T16:21:51.981Z,31.13
2018-10-19T16:24:20.819Z,33.42
2018-10-19T16:26:50.407Z,30.70
2018-10-19T16:29:19.255Z,29.70
2018-10-19T16:31:48.108Z,29.73
2018-10-19T16:34:17.697Z,29.27
2018-10-19T16:36:47.286Z,30.30
2018-10-19T16:39:16.835Z,30.80
2018-10-19T16:41:45.600Z,33.83
2018-10-19T16:44:14.454Z,28.83
2018-10-19T16:46:43.305Z,30.58
2018-10-19T16:49:12.178Z,29.43
2018-10-19T16:51:41.028Z,28.00
2018-10-19T16:54:10.729Z,27.50
2018-10-19T16:56:39.501Z,30.53
2018-10-19T16:59:08.358Z,29.80
2018-10-19T17:01:37.944Z,29.17
2018-10-19T17:04:06.819Z,31.52
2018-10-19T17:06:35.636Z,29.33
2018-10-19T17:09:05.248Z,29.17
2018-10-19T17:11:34.106Z,31.63
2018-10-19T17:14:02.950Z,29.07
2018-10-19T17:16:31.817Z,29.63
2018-10-19T17:19:01.411Z,30.50
2018-10-19T17:21:30.242Z,32.20
2018-10-19T17:23:59.176Z,33.73
2018-10-19T17:26:28.693Z,31.83
2018-10-19T17:28:57.598Z,32.17
2018-10-19T17:31:26.443Z,34.47
2018-10-19T17:33:55.271Z,30.93
2018-10-19T17:36:24.855Z,37.47
2018-10-19T17:38:53.765Z,35.27
2018-10-19T17:41:22.594Z,36.40
2018-10-19T17:43:51.430Z,32.50
2018-10-19T17:46:20.278Z,33.67
2018-10-19T17:48:49.121Z,33.23
2018-10-19T17:51:17.967Z,30.27
2018-10-19T17:53:46.849Z,34.63
2018-10-19T17:56:15.666Z,35.73
2018-10-19T17:58:44.522Z,32.20
2018-10-19T18:01:13.397Z,34.83
2018-10-19T18:03:42.232Z,33.10
2018-10-19T18:06:11.144Z,31.50
2018-10-19T18:08:39.949Z,32.37
2018-10-19T18:11:09.565Z,33.20
2018-10-19T18:13:39.131Z,34.07
2018-10-19T18:16:08.058Z,36.60
2018-10-19T18:18:36.841Z,36.30
2018-10-19T18:21:05.760Z,34.63
2018-10-19T18:23:35.349Z,31.37
2018-10-19T18:26:04.258Z,35.22
2018-10-19T18:28:33.033Z,34.83
2018-10-19T18:31:01.922Z,34.60
2018-10-19T18:33:30.726Z,33.93
2018-10-19T18:35:59.575Z,33.33
2018-10-19T18:38:29.157Z,36.23
2018-10-19T18:40:58.097Z,31.83
2018-10-19T18:43:26.876Z,35.40
2018-10-19T18:45:55.811Z,35.27
2018-10-19T18:48:24.627Z,31.07
2018-10-19T18:50:53.507Z,33.40
2018-10-19T18:53:22.356Z,33.80
2018-10-19T18:55:51.198Z,32.53
2018-10-19T18:58:20.052Z,32.87
2018-10-19T19:00:48.894Z,36.65
2018-10-19T19:03:17.732Z,34.80
2018-10-19T19:05:46.573Z,34.13
2018-10-19T19:08:15.514Z,33.80
2018-10-19T19:10:44.297Z,33.87
2018-10-19T19:13:13.145Z,34.13
2018-10-19T19:15:42.015Z,32.73
2018-10-19T19:18:10.868Z,31.83
2018-10-19T19:20:39.708Z,34.00
2018-10-19T19:23:08.595Z,32.77
2018-10-19T19:25:43.208Z,33.47
2018-10-19T19:28:12.796Z,34.30
2018-10-19T19:30:42.381Z,33.63
2018-10-19T19:33:11.225Z,33.63
2018-10-19T19:35:40.076Z,33.00
2018-10-19T19:38:08.936Z,33.40
2018-10-19T19:40:37.759Z,34.00
2018-10-19T19:43:06.608Z,34.03
2018-10-19T19:45:35.456Z,33.97
2018-10-19T19:48:04.312Z,34.60
2018-10-19T19:50:33.173Z,35.23
2018-10-19T19:53:02.030Z,34.63
2018-10-19T19:55:31.639Z,34.33
2018-10-19T19:58:00.488Z,33.67
2018-10-19T20:00:29.326Z,35.53
2018-10-19T20:02:58.155Z,36.93
2018-10-19T20:05:26.994Z,34.33
2018-10-19T20:07:55.867Z,43.47
2018-10-19T20:10:24.706Z,39.43
2018-10-19T20:12:53.573Z,36.33
2018-10-19T20:15:22.408Z,40.30
2018-10-19T20:17:51.244Z,36.27
2018-10-19T20:20:20.120Z,36.57
2018-10-19T20:22:49.708Z,37.87
2018-10-19T20:25:18.573Z,39.50
2018-10-19T20:27:47.413Z,41.75
2018-10-19T20:30:17.021Z,36.13
2018-10-19T20:32:46.628Z,35.93
2018-10-19T20:35:16.285Z,35.17
2018-10-19T20:37:45.074Z,35.20
2018-10-19T20:40:13.914Z,36.17
2018-10-19T20:42:43.507Z,35.60
2018-10-19T20:45:13.116Z,35.10
2018-10-19T20:47:42.726Z,38.77
2018-10-19T20:50:12.355Z,40.45
2018-10-19T20:52:41.200Z,39.97
2018-10-19T20:55:10.049Z,40.00
2018-10-19T20:57:38.896Z,26.63
2018-10-19T21:00:08.482Z,35.83
2018-10-19T21:02:37.388Z,34.40
2018-10-19T21:05:06.228Z,40.53
2018-10-19T21:07:35.144Z,35.00
2018-10-19T21:10:03.906Z,33.87
2018-10-19T21:12:32.742Z,33.67
2018-10-19T21:15:02.397Z,35.80
2018-10-19T21:17:31.247Z,39.08
2018-10-19T21:20:00.871Z,34.97
2018-10-19T21:22:30.269Z,38.60
2018-10-19T21:24:59.870Z,38.13
2018-10-19T21:27:28.715Z,37.03
2018-10-19T21:29:57.600Z,37.30
2018-10-19T21:32:26.409Z,36.23
2018-10-19T21:34:55.293Z,35.83
2018-10-19T21:37:24.115Z,37.70
2018-10-19T21:39:52.964Z,37.77
2018-10-19T21:42:21.820Z,35.43
2018-10-19T21:44:50.677Z,35.27
2018-10-19T21:47:19.529Z,38.40
2018-10-19T21:49:48.386Z,39.05
2018-10-19T21:52:17.255Z,37.43
2018-10-19T21:54:46.846Z,36.40
2018-10-19T21:57:15.679Z,35.77
2018-10-19T21:59:44.536Z,34.87
2018-10-19T22:02:13.454Z,36.20
2018-10-19T22:04:42.210Z,33.97
2018-10-19T22:07:11.838Z,35.70
2018-10-19T22:09:40.668Z,37.55
2018-10-19T22:12:09.502Z,37.78
2018-10-19T22:14:39.105Z,26.17
2018-10-19T22:17:08.040Z,35.70
2018-10-19T22:19:36.832Z,40.30
2018-10-19T22:22:05.674Z,43.15
2018-10-19T22:24:35.258Z,36.77
2018-10-19T22:27:04.114Z,37.93
2018-10-19T22:29:32.963Z,38.83
2018-10-19T22:32:01.820Z,36.17
2018-10-19T22:34:30.672Z,36.47
2018-10-19T22:36:59.538Z,36.60
2018-10-19T22:39:28.377Z,38.43
2018-10-19T22:41:57.236Z,39.40
2018-10-19T22:44:26.096Z,38.10
2018-10-19T22:46:55.738Z,37.57
2018-10-19T22:49:25.304Z,43.35
2018-10-19T22:51:54.165Z,40.75
2018-10-19T22:54:23.036Z,42.30
2018-10-19T22:56:51.872Z,41.93
2018-10-19T22:59:20.727Z,38.13
2018-10-19T23:01:49.579Z,40.92
2018-10-19T23:04:18.426Z,37.37
2018-10-19T23:06:47.268Z,37.87
2018-10-19T23:09:16.106Z,36.27
2018-10-19T23:11:44.953Z,33.87
2018-10-19T23:14:13.804Z,39.83
2018-10-19T23:16:42.636Z,35.60
2018-10-19T23:19:11.702Z,35.93
2018-10-19T23:21:40.372Z,35.10
2018-10-19T23:24:09.174Z,35.53
2018-10-19T23:26:38.021Z,38.67
2018-10-19T23:29:07.480Z,39.77
2018-10-19T23:31:37.140Z,40.90
2018-10-19T23:34:05.866Z,39.53
2018-10-19T23:36:34.708Z,39.33
2018-10-19T23:39:03.555Z,38.90
2018-10-19T23:41:32.396Z,38.10
2018-10-19T23:44:01.239Z,41.07
2018-10-19T23:46:30.084Z,40.57
2018-10-19T23:48:58.918Z,27.67
2018-10-19T23:51:27.748Z,35.23
2018-10-19T23:53:56.591Z,37.87
2018-10-19T23:56:25.422Z,36.70
2018-10-19T23:58:54.261Z,35.80
